| Date | Time | Temp. (oF) | Dew Point (oF) | Rel. Hum. (%) | Press. (in.) | Wind Dir. | Wind Speed (mph) | Hourly Rainfall (in.) |
|
|---|---|---|---|---|---|---|---|---|---|
| 1 | 02/11 | 00:00 | 26 | 10 | 52 | 30.39 | WNW | 9 | 0.00 |
| 2 | 02/10 | 23:00 | 27 | 9 | 48 | 30.37 | NW | 16 | 0.00 |
| 3 | 02/10 | 22:00 | 29 | 11 | 47 | 30.32 | NW | 8 | 0.00 |
| 4 | 02/10 | 21:00 | 30 | 11 | 46 | 30.29 | WNW | 10 | 0.00 |
| 5 | 02/10 | 20:00 | 32 | 12 | 45 | 30.25 | NW | 14 | 0.00 |
| 6 | 02/10 | 19:00 | 34 | 13 | 43 | 30.21 | NW | 12 | 0.00 |
| 7 | 02/10 | 18:00 | 36 | 14 | 41 | 30.16 | WNW | 9 | 0.00 |
| 8 | 02/10 | 17:00 | 39 | 16 | 39 | 30.10 | W | 10 | 0.00 |
| 9 | 02/10 | 16:00 | 41 | 16 | 37 | 30.07 | WNW | 9 | 0.00 |
| 10 | 02/10 | 15:00 | 42 | 16 | 35 | 30.05 | WNW | 22 | 0.00 |
| 11 | 02/10 | 14:00 | 42 | 15 | 34 | 30.05 | WNW | 20 | 0.00 |
| 12 | 02/10 | 13:00 | 42 | 18 | 39 | 30.05 | NW | 16 | 0.00 |
| 13 | 02/10 | 12:00 | 42 | 20 | 42 | 30.04 | WNW | 15 | 0.00 |
| 14 | 02/10 | 11:00 | 41 | 22 | 48 | 30.03 | NW | 11 | 0.00 |
| 15 | 02/10 | 10:00 | 41 | 25 | 53 | 30.01 | WNW | 13 | 0.00 |
| 16 | 02/10 | 09:00 | 42 | 27 | 57 | 29.98 | WNW | 16 | 0.00 |
| 17 | 02/10 | 08:00 | 43 | 28 | 57 | 29.92 | WNW | 14 | 0.00 |
| 18 | 02/10 | 07:00 | 47 | 33 | 60 | 29.86 | WNW | 15 | 0.00 |
| 19 | 02/10 | 06:00 | 52 | 41 | 67 | 29.78 | WSW | 24 | 0.00 |
| 20 | 02/10 | 05:00 | 57 | 51 | 82 | 29.69 | WNW | 5 | 0.00 |
| 21 | 02/10 | 04:00 | 60 | 51 | 74 | 29.62 | S | 12 | 0.00 |
| 22 | 02/10 | 03:00 | 60 | 50 | 72 | 29.61 | S | 15 | 0.00 |
| 23 | 02/10 | 02:00 | 60 | 50 | 70 | 29.62 | S | 19 | 0.00 |
| 24 | 02/10 | 01:00 | 59 | 49 | 72 | 29.65 | SSW | 20 | 0.00 |